sensor_id;sensor_type;location;lat;lon;timestamp;temperature;humidity
14378;DHT22;7272;53.668;9.578;2022-11-18T00:00:15;4.40;99.90
14378;DHT22;7272;53.668;9.578;2022-11-18T00:03:19;4.30;99.90
14378;DHT22;7272;53.668;9.578;2022-11-18T00:06:22;4.30;99.90
14378;DHT22;7272;53.668;9.578;2022-11-18T00:09:25;4.30;99.90
14378;DHT22;7272;53.668;9.578;2022-11-18T00:12:27;4.30;99.90
14378;DHT22;7272;53.668;9.578;2022-11-18T00:15:47;4.30;99.90
14378;DHT22;7272;53.668;9.578;2022-11-18T00:18:50;4.30;99.90
14378;DHT22;7272;53.668;9.578;2022-11-18T00:21:52;4.30;99.90
14378;DHT22;7272;53.668;9.578;2022-11-18T00:24:54;4.30;99.90
14378;DHT22;7272;53.668;9.578;2022-11-18T00:27:56;4.20;99.90
14378;DHT22;7272;53.668;9.578;2022-11-18T00:31:02;4.20;99.90
14378;DHT22;7272;53.668;9.578;2022-11-18T00:34:06;4.20;99.90
14378;DHT22;7272;53.668;9.578;2022-11-18T00:37:08;4.20;99.90
14378;DHT22;7272;53.668;9.578;2022-11-18T00:40:10;4.20;99.90
14378;DHT22;7272;53.668;9.578;2022-11-18T00:43:12;4.30;99.90
14378;DHT22;7272;53.668;9.578;2022-11-18T00:46:15;4.30;99.90
14378;DHT22;7272;53.668;9.578;2022-11-18T00:49:18;4.20;99.90
14378;DHT22;7272;53.668;9.578;2022-11-18T00:52:20;4.20;99.90
14378;DHT22;7272;53.668;9.578;2022-11-18T00:55:22;4.20;99.90
14378;DHT22;7272;53.668;9.578;2022-11-18T00:58:23;4.20;99.90
14378;DHT22;7272;53.668;9.578;2022-11-18T01:01:25;4.20;99.90
14378;DHT22;7272;53.668;9.578;2022-11-18T01:04:29;4.20;99.90
14378;DHT22;7272;53.668;9.578;2022-11-18T01:07:31;4.20;99.90
14378;DHT22;7272;53.668;9.578;2022-11-18T01:10:33;4.20;99.90
14378;DHT22;7272;53.668;9.578;2022-11-18T01:13:36;4.20;99.90
14378;DHT22;7272;53.668;9.578;2022-11-18T01:16:37;4.20;99.90
14378;DHT22;7272;53.668;9.578;2022-11-18T01:19:40;4.20;99.90
14378;DHT22;7272;53.668;9.578;2022-11-18T01:22:42;4.10;99.90
14378;DHT22;7272;53.668;9.578;2022-11-18T01:25:45;4.10;99.90
14378;DHT22;7272;53.668;9.578;2022-11-18T01:28:48;4.20;99.90
14378;DHT22;7272;53.668;9.578;2022-11-18T01:31:50;4.10;99.90
14378;DHT22;7272;53.668;9.578;2022-11-18T01:34:53;4.10;99.90
14378;DHT22;7272;53.668;9.578;2022-11-18T01:37:55;4.10;99.90
14378;DHT22;7272;53.668;9.578;2022-11-18T01:40:57;4.10;99.90
14378;DHT22;7272;53.668;9.578;2022-11-18T01:44:00;4.00;99.90
14378;DHT22;7272;53.668;9.578;2022-11-18T01:47:02;4.10;99.90
14378;DHT22;7272;53.668;9.578;2022-11-18T01:50:06;4.10;99.90
14378;DHT22;7272;53.668;9.578;2022-11-18T01:53:13;4.00;99.90
14378;DHT22;7272;53.668;9.578;2022-11-18T01:56:19;4.00;99.90
14378;DHT22;7272;53.668;9.578;2022-11-18T01:59:25;4.00;99.90
14378;DHT22;7272;53.668;9.578;2022-11-18T02:02:30;3.90;99.90
14378;DHT22;7272;53.668;9.578;2022-11-18T02:05:35;3.90;99.90
14378;DHT22;7272;53.668;9.578;2022-11-18T02:08:37;3.90;99.90
14378;DHT22;7272;53.668;9.578;2022-11-18T02:11:39;4.00;99.90
14378;DHT22;7272;53.668;9.578;2022-11-18T02:14:54;3.90;99.90
14378;DHT22;7272;53.668;9.578;2022-11-18T02:18:03;3.90;99.90
14378;DHT22;7272;53.668;9.578;2022-11-18T02:21:20;3.90;99.90
14378;DHT22;7272;53.668;9.578;2022-11-18T02:24:39;3.90;99.90
14378;DHT22;7272;53.668;9.578;2022-11-18T02:28:15;3.90;99.90
14378;DHT22;7272;53.668;9.578;2022-11-18T02:31:25;3.90;99.90
14378;DHT22;7272;53.668;9.578;2022-11-18T02:34:37;3.90;99.90
14378;DHT22;7272;53.668;9.578;2022-11-18T02:37:45;3.90;99.90
14378;DHT22;7272;53.668;9.578;2022-11-18T02:40:53;3.90;99.90
14378;DHT22;7272;53.668;9.578;2022-11-18T02:44:00;3.80;99.90
14378;DHT22;7272;53.668;9.578;2022-11-18T02:47:07;3.90;99.90
14378;DHT22;7272;53.668;9.578;2022-11-18T02:50:15;3.90;99.90
14378;DHT22;7272;53.668;9.578;2022-11-18T02:53:20;3.90;99.90
14378;DHT22;7272;53.668;9.578;2022-11-18T02:56:23;3.80;99.90
14378;DHT22;7272;53.668;9.578;2022-11-18T02:59:27;3.80;99.90
14378;DHT22;7272;53.668;9.578;2022-11-18T03:02:39;3.80;99.90
14378;DHT22;7272;53.668;9.578;2022-11-18T03:05:48;3.70;99.90
14378;DHT22;7272;53.668;9.578;2022-11-18T03:09:00;3.70;99.90
14378;DHT22;7272;53.668;9.578;2022-11-18T03:12:11;3.80;99.90
14378;DHT22;7272;53.668;9.578;2022-11-18T03:15:19;3.80;99.90
14378;DHT22;7272;53.668;9.578;2022-11-18T03:18:27;3.80;99.90
14378;DHT22;7272;53.668;9.578;2022-11-18T03:21:36;3.80;99.90
14378;DHT22;7272;53.668;9.578;2022-11-18T03:24:43;3.70;99.90
14378;DHT22;7272;53.668;9.578;2022-11-18T03:27:48;3.80;99.90
14378;DHT22;7272;53.668;9.578;2022-11-18T03:30:57;3.70;99.90
14378;DHT22;7272;53.668;9.578;2022-11-18T03:34:08;3.70;99.90
14378;DHT22;7272;53.668;9.578;2022-11-18T03:37:14;3.70;99.90
14378;DHT22;7272;53.668;9.578;2022-11-18T03:40:21;3.70;99.90
14378;DHT22;7272;53.668;9.578;2022-11-18T03:43:26;3.70;99.90
14378;DHT22;7272;53.668;9.578;2022-11-18T03:46:34;3.70;99.90
14378;DHT22;7272;53.668;9.578;2022-11-18T03:49:42;3.70;99.90
14378;DHT22;7272;53.668;9.578;2022-11-18T03:52:45;3.70;99.90
14378;DHT22;7272;53.668;9.578;2022-11-18T03:55:51;3.60;99.90
14378;DHT22;7272;53.668;9.578;2022-11-18T03:58:59;3.70;99.90
14378;DHT22;7272;53.668;9.578;2022-11-18T04:02:07;3.70;99.90
14378;DHT22;7272;53.668;9.578;2022-11-18T04:05:14;3.70;99.90
14378;DHT22;7272;53.668;9.578;2022-11-18T04:08:20;3.60;99.90
14378;DHT22;7272;53.668;9.578;2022-11-18T04:11:25;3.60;99.90
14378;DHT22;7272;53.668;9.578;2022-11-18T04:14:48;3.60;99.90
14378;DHT22;7272;53.668;9.578;2022-11-18T04:17:55;3.60;99.90
14378;DHT22;7272;53.668;9.578;2022-11-18T04:20:58;3.60;99.90
14378;DHT22;7272;53.668;9.578;2022-11-18T04:24:00;3.60;99.90
14378;DHT22;7272;53.668;9.578;2022-11-18T04:27:02;3.60;99.90
14378;DHT22;7272;53.668;9.578;2022-11-18T04:30:06;3.50;99.90
14378;DHT22;7272;53.668;9.578;2022-11-18T04:33:08;3.50;99.90
14378;DHT22;7272;53.668;9.578;2022-11-18T04:36:12;3.50;99.90
14378;DHT22;7272;53.668;9.578;2022-11-18T04:39:13;3.50;99.90
14378;DHT22;7272;53.668;9.578;2022-11-18T04:42:17;3.50;99.90
14378;DHT22;7272;53.668;9.578;2022-11-18T04:45:19;3.50;99.90
14378;DHT22;7272;53.668;9.578;2022-11-18T04:48:21;3.50;99.90
14378;DHT22;7272;53.668;9.578;2022-11-18T04:51:25;3.50;99.90
14378;DHT22;7272;53.668;9.578;2022-11-18T04:54:27;3.40;99.90
14378;DHT22;7272;53.668;9.578;2022-11-18T04:57:29;3.50;99.90
14378;DHT22;7272;53.668;9.578;2022-11-18T05:00:30;3.40;99.90
14378;DHT22;7272;53.668;9.578;2022-11-18T05:03:32;3.50;99.90
14378;DHT22;7272;53.668;9.578;2022-11-18T05:06:35;3.50;99.90
14378;DHT22;7272;53.668;9.578;2022-11-18T05:09:37;3.50;99.90
14378;DHT22;7272;53.668;9.578;2022-11-18T05:12:39;3.50;99.90
14378;DHT22;7272;53.668;9.578;2022-11-18T05:15:49;3.50;99.90
14378;DHT22;7272;53.668;9.578;2022-11-18T05:18:51;3.40;99.90
14378;DHT22;7272;53.668;9.578;2022-11-18T05:21:54;3.40;99.90
14378;DHT22;7272;53.668;9.578;2022-11-18T05:24:56;3.40;99.90
14378;DHT22;7272;53.668;9.578;2022-11-18T05:27:58;3.40;99.90
14378;DHT22;7272;53.668;9.578;2022-11-18T05:31:05;3.40;99.90
14378;DHT22;7272;53.668;9.578;2022-11-18T05:34:07;3.40;99.90
14378;DHT22;7272;53.668;9.578;2022-11-18T05:37:10;3.50;99.90
14378;DHT22;7272;53.668;9.578;2022-11-18T05:40:12;3.50;99.90
14378;DHT22;7272;53.668;9.578;2022-11-18T05:43:14;3.50;99.90
14378;DHT22;7272;53.668;9.578;2022-11-18T05:46:15;3.50;99.90
14378;DHT22;7272;53.668;9.578;2022-11-18T05:49:17;3.50;99.90
14378;DHT22;7272;53.668;9.578;2022-11-18T05:52:20;3.60;99.90
14378;DHT22;7272;53.668;9.578;2022-11-18T05:55:24;3.60;99.90
14378;DHT22;7272;53.668;9.578;2022-11-18T05:58:27;3.60;99.90
14378;DHT22;7272;53.668;9.578;2022-11-18T06:01:32;3.50;99.90
14378;DHT22;7272;53.668;9.578;2022-11-18T06:04:37;3.50;99.90
14378;DHT22;7272;53.668;9.578;2022-11-18T06:07:43;3.50;99.90
14378;DHT22;7272;53.668;9.578;2022-11-18T06:10:46;3.50;99.90
14378;DHT22;7272;53.668;9.578;2022-11-18T06:13:52;3.40;99.90
14378;DHT22;7272;53.668;9.578;2022-11-18T06:17:00;3.40;99.90
14378;DHT22;7272;53.668;9.578;2022-11-18T06:20:04;3.40;99.90
14378;DHT22;7272;53.668;9.578;2022-11-18T06:23:07;3.40;99.90
14378;DHT22;7272;53.668;9.578;2022-11-18T06:26:09;3.40;99.90
14378;DHT22;7272;53.668;9.578;2022-11-18T06:29:13;3.40;99.90
14378;DHT22;7272;53.668;9.578;2022-11-18T06:32:15;3.40;99.90
14378;DHT22;7272;53.668;9.578;2022-11-18T06:35:17;3.40;99.90
14378;DHT22;7272;53.668;9.578;2022-11-18T06:38:22;3.40;99.90
14378;DHT22;7272;53.668;9.578;2022-11-18T06:41:24;3.40;99.90
14378;DHT22;7272;53.668;9.578;2022-11-18T06:44:26;3.40;99.90
14378;DHT22;7272;53.668;9.578;2022-11-18T06:47:28;3.30;99.90
14378;DHT22;7272;53.668;9.578;2022-11-18T06:50:30;3.30;99.90
14378;DHT22;7272;53.668;9.578;2022-11-18T06:53:34;3.30;99.90
14378;DHT22;7272;53.668;9.578;2022-11-18T06:56:36;3.30;99.90
14378;DHT22;7272;53.668;9.578;2022-11-18T06:59:37;3.20;99.90
14378;DHT22;7272;53.668;9.578;2022-11-18T07:02:39;3.20;99.90
14378;DHT22;7272;53.668;9.578;2022-11-18T07:05:41;3.10;99.90
14378;DHT22;7272;53.668;9.578;2022-11-18T07:08:44;3.10;99.90
14378;DHT22;7272;53.668;9.578;2022-11-18T07:11:47;3.10;99.90
14378;DHT22;7272;53.668;9.578;2022-11-18T07:14:48;3.10;99.90
14378;DHT22;7272;53.668;9.578;2022-11-18T07:17:50;3.10;99.90
14378;DHT22;7272;53.668;9.578;2022-11-18T07:20:52;3.10;99.90
14378;DHT22;7272;53.668;9.578;2022-11-18T07:23:56;3.20;99.90
14378;DHT22;7272;53.668;9.578;2022-11-18T07:26:58;3.20;99.90
14378;DHT22;7272;53.668;9.578;2022-11-18T07:29:59;3.20;99.90
14378;DHT22;7272;53.668;9.578;2022-11-18T07:33:01;3.10;99.90
14378;DHT22;7272;53.668;9.578;2022-11-18T07:36:06;3.10;99.90
14378;DHT22;7272;53.668;9.578;2022-11-18T07:39:09;3.10;99.90
14378;DHT22;7272;53.668;9.578;2022-11-18T07:42:11;3.10;99.90
14378;DHT22;7272;53.668;9.578;2022-11-18T07:45:13;3.00;99.90
14378;DHT22;7272;53.668;9.578;2022-11-18T07:48:15;3.10;99.90
14378;DHT22;7272;53.668;9.578;2022-11-18T07:51:19;3.10;99.90
14378;DHT22;7272;53.668;9.578;2022-11-18T07:54:23;3.10;99.90
14378;DHT22;7272;53.668;9.578;2022-11-18T07:57:25;3.10;99.90
14378;DHT22;7272;53.668;9.578;2022-11-18T08:00:27;3.10;99.90
14378;DHT22;7272;53.668;9.578;2022-11-18T08:03:29;3.10;99.90
14378;DHT22;7272;53.668;9.578;2022-11-18T08:06:32;3.10;99.90
14378;DHT22;7272;53.668;9.578;2022-11-18T08:09:35;3.10;99.90
14378;DHT22;7272;53.668;9.578;2022-11-18T08:12:37;3.10;99.90
14378;DHT22;7272;53.668;9.578;2022-11-18T08:15:39;3.20;99.90
14378;DHT22;7272;53.668;9.578;2022-11-18T08:18:41;3.20;99.90
14378;DHT22;7272;53.668;9.578;2022-11-18T08:21:43;3.20;99.90
14378;DHT22;7272;53.668;9.578;2022-11-18T08:24:47;3.20;99.90
14378;DHT22;7272;53.668;9.578;2022-11-18T08:27:49;3.20;99.90
14378;DHT22;7272;53.668;9.578;2022-11-18T08:30:50;3.30;99.90
14378;DHT22;7272;53.668;9.578;2022-11-18T08:33:56;3.30;99.90
14378;DHT22;7272;53.668;9.578;2022-11-18T08:36:58;3.30;99.90
14378;DHT22;7272;53.668;9.578;2022-11-18T08:40:02;3.40;99.90
14378;DHT22;7272;53.668;9.578;2022-11-18T08:43:03;3.40;99.90
14378;DHT22;7272;53.668;9.578;2022-11-18T08:46:05;3.30;99.90
14378;DHT22;7272;53.668;9.578;2022-11-18T08:49:07;3.30;99.90
14378;DHT22;7272;53.668;9.578;2022-11-18T08:52:09;3.40;99.90
14378;DHT22;7272;53.668;9.578;2022-11-18T08:55:12;3.30;99.90
14378;DHT22;7272;53.668;9.578;2022-11-18T08:58:14;3.30;99.90
14378;DHT22;7272;53.668;9.578;2022-11-18T09:01:16;3.40;99.90
14378;DHT22;7272;53.668;9.578;2022-11-18T09:04:18;3.40;99.90
14378;DHT22;7272;53.668;9.578;2022-11-18T09:07:21;3.40;99.90
14378;DHT22;7272;53.668;9.578;2022-11-18T09:10:24;3.40;99.90
14378;DHT22;7272;53.668;9.578;2022-11-18T09:13:26;3.40;99.90
14378;DHT22;7272;53.668;9.578;2022-11-18T09:16:30;3.40;99.90
14378;DHT22;7272;53.668;9.578;2022-11-18T09:19:32;3.40;99.90
14378;DHT22;7272;53.668;9.578;2022-11-18T09:22:35;3.40;99.90
14378;DHT22;7272;53.668;9.578;2022-11-18T09:25:38;3.50;99.90
14378;DHT22;7272;53.668;9.578;2022-11-18T09:28:41;3.50;99.90
14378;DHT22;7272;53.668;9.578;2022-11-18T09:31:43;3.50;99.90
14378;DHT22;7272;53.668;9.578;2022-11-18T09:34:45;3.40;99.90
14378;DHT22;7272;53.668;9.578;2022-11-18T09:37:47;3.50;99.90
14378;DHT22;7272;53.668;9.578;2022-11-18T09:40:58;3.50;99.90
14378;DHT22;7272;53.668;9.578;2022-11-18T09:44:09;3.50;99.90
14378;DHT22;7272;53.668;9.578;2022-11-18T09:47:22;3.40;99.90
14378;DHT22;7272;53.668;9.578;2022-11-18T09:50:25;3.50;99.90
14378;DHT22;7272;53.668;9.578;2022-11-18T09:53:28;3.50;99.90
14378;DHT22;7272;53.668;9.578;2022-11-18T09:56:31;3.40;99.90
14378;DHT22;7272;53.668;9.578;2022-11-18T09:59:33;3.40;99.90
14378;DHT22;7272;53.668;9.578;2022-11-18T10:02:46;3.40;99.90
14378;DHT22;7272;53.668;9.578;2022-11-18T10:05:52;3.40;99.90
14378;DHT22;7272;53.668;9.578;2022-11-18T10:09:05;3.40;99.90
14378;DHT22;7272;53.668;9.578;2022-11-18T10:12:21;3.50;99.90
14378;DHT22;7272;53.668;9.578;2022-11-18T10:15:31;3.50;99.90
14378;DHT22;7272;53.668;9.578;2022-11-18T10:18:39;3.50;99.90
14378;DHT22;7272;53.668;9.578;2022-11-18T10:21:50;3.50;99.90
14378;DHT22;7272;53.668;9.578;2022-11-18T10:24:56;3.50;99.90
14378;DHT22;7272;53.668;9.578;2022-11-18T10:28:14;3.50;99.90
14378;DHT22;7272;53.668;9.578;2022-11-18T10:31:16;3.60;99.90
14378;DHT22;7272;53.668;9.578;2022-11-18T10:34:19;3.60;99.90
14378;DHT22;7272;53.668;9.578;2022-11-18T10:37:24;3.60;99.90
14378;DHT22;7272;53.668;9.578;2022-11-18T10:40:29;3.70;99.90
14378;DHT22;7272;53.668;9.578;2022-11-18T10:43:49;3.60;99.90
14378;DHT22;7272;53.668;9.578;2022-11-18T10:46:51;3.70;99.90
14378;DHT22;7272;53.668;9.578;2022-11-18T10:49:55;3.70;99.90
14378;DHT22;7272;53.668;9.578;2022-11-18T10:52:57;3.80;99.90
14378;DHT22;7272;53.668;9.578;2022-11-18T10:56:01;3.90;99.90
14378;DHT22;7272;53.668;9.578;2022-11-18T10:59:05;4.00;99.90
14378;DHT22;7272;53.668;9.578;2022-11-18T11:02:15;4.10;99.90
14378;DHT22;7272;53.668;9.578;2022-11-18T11:05:19;4.10;99.90
14378;DHT22;7272;53.668;9.578;2022-11-18T11:08:23;4.00;99.90
14378;DHT22;7272;53.668;9.578;2022-11-18T11:11:26;4.00;99.90
14378;DHT22;7272;53.668;9.578;2022-11-18T11:14:35;4.00;99.90
14378;DHT22;7272;53.668;9.578;2022-11-18T11:17:41;4.00;99.90
14378;DHT22;7272;53.668;9.578;2022-11-18T11:20:45;3.90;99.90
14378;DHT22;7272;53.668;9.578;2022-11-18T11:23:47;4.00;99.90
14378;DHT22;7272;53.668;9.578;2022-11-18T11:26:59;4.00;99.90
14378;DHT22;7272;53.668;9.578;2022-11-18T11:30:08;4.00;99.90
14378;DHT22;7272;53.668;9.578;2022-11-18T11:33:33;4.00;99.90
14378;DHT22;7272;53.668;9.578;2022-11-18T11:36:43;4.10;99.90
14378;DHT22;7272;53.668;9.578;2022-11-18T11:39:57;4.10;99.90
14378;DHT22;7272;53.668;9.578;2022-11-18T11:43:23;4.10;99.90
14378;DHT22;7272;53.668;9.578;2022-11-18T11:46:35;4.00;99.90
14378;DHT22;7272;53.668;9.578;2022-11-18T11:49:51;4.00;99.90
14378;DHT22;7272;53.668;9.578;2022-11-18T11:53:09;4.00;99.90
14378;DHT22;7272;53.668;9.578;2022-11-18T11:56:20;4.00;99.90
14378;DHT22;7272;53.668;9.578;2022-11-18T11:59:28;3.90;99.90
14378;DHT22;7272;53.668;9.578;2022-11-18T12:02:53;3.90;99.90
14378;DHT22;7272;53.668;9.578;2022-11-18T12:05:57;3.90;99.90
14378;DHT22;7272;53.668;9.578;2022-11-18T12:09:04;3.80;99.90
14378;DHT22;7272;53.668;9.578;2022-11-18T12:12:12;3.90;99.90
14378;DHT22;7272;53.668;9.578;2022-11-18T12:15:43;3.80;99.90
14378;DHT22;7272;53.668;9.578;2022-11-18T12:18:53;3.90;99.90
14378;DHT22;7272;53.668;9.578;2022-11-18T12:21:58;3.90;99.90
14378;DHT22;7272;53.668;9.578;2022-11-18T12:29:21;4.00;99.90
14378;DHT22;7272;53.668;9.578;2022-11-18T12:32:34;4.10;99.90
14378;DHT22;7272;53.668;9.578;2022-11-18T12:35:45;4.10;99.90
14378;DHT22;7272;53.668;9.578;2022-11-18T12:38:48;4.10;99.90
14378;DHT22;7272;53.668;9.578;2022-11-18T12:41:53;4.10;99.90
14378;DHT22;7272;53.668;9.578;2022-11-18T12:52:51;4.10;99.90
14378;DHT22;7272;53.668;9.578;2022-11-18T12:55:55;4.10;99.90
14378;DHT22;7272;53.668;9.578;2022-11-18T12:58:59;4.20;99.90
14378;DHT22;7272;53.668;9.578;2022-11-18T13:02:21;4.20;99.90
14378;DHT22;7272;53.668;9.578;2022-11-18T13:05:26;4.20;99.90
14378;DHT22;7272;53.668;9.578;2022-11-18T13:08:29;4.20;99.90
14378;DHT22;7272;53.668;9.578;2022-11-18T13:11:34;4.20;99.90
14378;DHT22;7272;53.668;9.578;2022-11-18T13:14:46;4.20;99.90
14378;DHT22;7272;53.668;9.578;2022-11-18T13:18:10;4.20;99.90
14378;DHT22;7272;53.668;9.578;2022-11-18T13:21:20;4.20;99.90
14378;DHT22;7272;53.668;9.578;2022-11-18T13:24:44;4.10;99.90
14378;DHT22;7272;53.668;9.578;2022-11-18T13:27:50;4.10;99.90
14378;DHT22;7272;53.668;9.578;2022-11-18T13:30:57;4.20;99.90
14378;DHT22;7272;53.668;9.578;2022-11-18T13:34:01;4.20;99.90
14378;DHT22;7272;53.668;9.578;2022-11-18T13:37:15;4.10;99.90
14378;DHT22;7272;53.668;9.578;2022-11-18T13:40:20;4.10;99.90
14378;DHT22;7272;53.668;9.578;2022-11-18T13:43:25;4.10;99.90
14378;DHT22;7272;53.668;9.578;2022-11-18T13:46:27;4.10;99.90
14378;DHT22;7272;53.668;9.578;2022-11-18T13:49:39;4.00;99.90
14378;DHT22;7272;53.668;9.578;2022-11-18T13:52:47;4.00;99.90
14378;DHT22;7272;53.668;9.578;2022-11-18T13:55:54;4.00;99.90
14378;DHT22;7272;53.668;9.578;2022-11-18T13:58:59;3.90;99.90
14378;DHT22;7272;53.668;9.578;2022-11-18T14:02:01;3.90;99.90
14378;DHT22;7272;53.668;9.578;2022-11-18T14:05:03;3.80;99.90
14378;DHT22;7272;53.668;9.578;2022-11-18T14:08:27;3.80;99.90
14378;DHT22;7272;53.668;9.578;2022-11-18T14:11:35;3.70;99.90
14378;DHT22;7272;53.668;9.578;2022-11-18T14:14:39;3.70;99.90
14378;DHT22;7272;53.668;9.578;2022-11-18T14:17:53;3.60;99.90
14378;DHT22;7272;53.668;9.578;2022-11-18T14:20:55;3.60;99.90
14378;DHT22;7272;53.668;9.578;2022-11-18T14:23:59;3.60;99.90
14378;DHT22;7272;53.668;9.578;2022-11-18T14:27:35;3.50;99.90
14378;DHT22;7272;53.668;9.578;2022-11-18T14:30:39;3.50;99.90
14378;DHT22;7272;53.668;9.578;2022-11-18T14:33:41;3.50;99.90
14378;DHT22;7272;53.668;9.578;2022-11-18T14:36:43;3.40;99.90
14378;DHT22;7272;53.668;9.578;2022-11-18T14:39:55;3.40;99.90
14378;DHT22;7272;53.668;9.578;2022-11-18T14:42:57;3.40;99.90
14378;DHT22;7272;53.668;9.578;2022-11-18T14:46:04;3.40;99.90
14378;DHT22;7272;53.668;9.578;2022-11-18T14:49:12;3.30;99.90
14378;DHT22;7272;53.668;9.578;2022-11-18T14:52:14;3.30;99.90
14378;DHT22;7272;53.668;9.578;2022-11-18T14:55:18;3.30;99.90
14378;DHT22;7272;53.668;9.578;2022-11-18T14:58:23;3.20;99.90
14378;DHT22;7272;53.668;9.578;2022-11-18T15:01:26;3.20;99.90
14378;DHT22;7272;53.668;9.578;2022-11-18T15:04:29;3.20;99.90
14378;DHT22;7272;53.668;9.578;2022-11-18T15:07:31;3.20;99.90
14378;DHT22;7272;53.668;9.578;2022-11-18T15:10:35;3.10;99.90
14378;DHT22;7272;53.668;9.578;2022-11-18T15:13:37;3.10;99.90
14378;DHT22;7272;53.668;9.578;2022-11-18T15:16:39;3.10;99.90
14378;DHT22;7272;53.668;9.578;2022-11-18T15:19:42;3.00;99.90
14378;DHT22;7272;53.668;9.578;2022-11-18T15:22:44;3.00;99.90
14378;DHT22;7272;53.668;9.578;2022-11-18T15:25:47;3.00;99.90
14378;DHT22;7272;53.668;9.578;2022-11-18T15:28:50;2.90;99.90
14378;DHT22;7272;53.668;9.578;2022-11-18T15:31:53;2.90;99.90
14378;DHT22;7272;53.668;9.578;2022-11-18T15:34:55;2.80;99.90
14378;DHT22;7272;53.668;9.578;2022-11-18T15:37:57;2.80;99.90
14378;DHT22;7272;53.668;9.578;2022-11-18T15:41:00;2.80;99.90
14378;DHT22;7272;53.668;9.578;2022-11-18T15:44:03;2.80;99.90
14378;DHT22;7272;53.668;9.578;2022-11-18T15:47:05;2.80;99.90
14378;DHT22;7272;53.668;9.578;2022-11-18T15:50:07;2.80;99.90
14378;DHT22;7272;53.668;9.578;2022-11-18T15:53:10;2.70;99.90
14378;DHT22;7272;53.668;9.578;2022-11-18T15:56:25;2.70;99.90
14378;DHT22;7272;53.668;9.578;2022-11-18T15:59:28;2.60;99.90
14378;DHT22;7272;53.668;9.578;2022-11-18T16:02:30;2.60;99.90
14378;DHT22;7272;53.668;9.578;2022-11-18T16:05:32;2.60;99.90
14378;DHT22;7272;53.668;9.578;2022-11-18T16:08:34;2.60;99.90
14378;DHT22;7272;53.668;9.578;2022-11-18T16:11:38;2.60;99.90
14378;DHT22;7272;53.668;9.578;2022-11-18T16:14:57;2.60;99.90
14378;DHT22;7272;53.668;9.578;2022-11-18T16:18:14;2.60;99.90
14378;DHT22;7272;53.668;9.578;2022-11-18T16:21:17;2.50;99.90
14378;DHT22;7272;53.668;9.578;2022-11-18T16:24:21;2.50;99.90
14378;DHT22;7272;53.668;9.578;2022-11-18T16:27:24;2.40;99.90
14378;DHT22;7272;53.668;9.578;2022-11-18T16:30:26;2.40;99.90
14378;DHT22;7272;53.668;9.578;2022-11-18T16:33:46;2.30;99.90
14378;DHT22;7272;53.668;9.578;2022-11-18T16:36:50;2.30;99.90
14378;DHT22;7272;53.668;9.578;2022-11-18T16:39:52;2.30;99.90
14378;DHT22;7272;53.668;9.578;2022-11-18T16:42:56;2.30;99.90
14378;DHT22;7272;53.668;9.578;2022-11-18T16:45:58;2.30;99.90
14378;DHT22;7272;53.668;9.578;2022-11-18T16:49:01;2.20;99.90
14378;DHT22;7272;53.668;9.578;2022-11-18T16:52:03;2.10;99.90
14378;DHT22;7272;53.668;9.578;2022-11-18T16:55:06;2.10;99.90
14378;DHT22;7272;53.668;9.578;2022-11-18T16:58:09;2.00;99.90
14378;DHT22;7272;53.668;9.578;2022-11-18T17:01:12;1.90;99.90
14378;DHT22;7272;53.668;9.578;2022-11-18T17:04:15;1.80;99.90
14378;DHT22;7272;53.668;9.578;2022-11-18T17:07:17;1.80;99.90
14378;DHT22;7272;53.668;9.578;2022-11-18T17:10:20;1.80;99.90
14378;DHT22;7272;53.668;9.578;2022-11-18T17:13:23;1.80;99.90
14378;DHT22;7272;53.668;9.578;2022-11-18T17:16:25;1.80;99.90
14378;DHT22;7272;53.668;9.578;2022-11-18T17:19:28;1.80;99.90
14378;DHT22;7272;53.668;9.578;2022-11-18T17:22:30;1.70;99.90
14378;DHT22;7272;53.668;9.578;2022-11-18T17:25:32;1.70;99.90
14378;DHT22;7272;53.668;9.578;2022-11-18T17:28:36;1.80;99.90
14378;DHT22;7272;53.668;9.578;2022-11-18T17:31:40;1.80;99.90
14378;DHT22;7272;53.668;9.578;2022-11-18T17:34:42;1.70;99.90
14378;DHT22;7272;53.668;9.578;2022-11-18T17:37:44;1.70;99.90
14378;DHT22;7272;53.668;9.578;2022-11-18T17:40:52;1.70;99.90
14378;DHT22;7272;53.668;9.578;2022-11-18T17:43:55;1.70;99.90
14378;DHT22;7272;53.668;9.578;2022-11-18T17:46:58;1.70;99.90
14378;DHT22;7272;53.668;9.578;2022-11-18T17:50:02;1.70;99.90
14378;DHT22;7272;53.668;9.578;2022-11-18T17:53:04;1.70;99.90
14378;DHT22;7272;53.668;9.578;2022-11-18T17:56:07;1.80;99.90
14378;DHT22;7272;53.668;9.578;2022-11-18T17:59:10;1.80;99.90
14378;DHT22;7272;53.668;9.578;2022-11-18T18:02:14;1.80;99.90
14378;DHT22;7272;53.668;9.578;2022-11-18T18:05:18;1.80;99.90
14378;DHT22;7272;53.668;9.578;2022-11-18T18:08:20;1.70;99.90
14378;DHT22;7272;53.668;9.578;2022-11-18T18:11:22;1.70;99.90
14378;DHT22;7272;53.668;9.578;2022-11-18T18:14:26;1.70;99.90
14378;DHT22;7272;53.668;9.578;2022-11-18T18:17:27;1.60;99.90
14378;DHT22;7272;53.668;9.578;2022-11-18T18:20:29;1.70;99.90
14378;DHT22;7272;53.668;9.578;2022-11-18T18:23:33;1.70;99.90
14378;DHT22;7272;53.668;9.578;2022-11-18T18:26:35;1.60;99.90
14378;DHT22;7272;53.668;9.578;2022-11-18T18:29:38;1.60;99.90
14378;DHT22;7272;53.668;9.578;2022-11-18T18:32:40;1.60;99.90
14378;DHT22;7272;53.668;9.578;2022-11-18T18:35:42;1.60;99.90
14378;DHT22;7272;53.668;9.578;2022-11-18T18:38:45;1.50;99.90
14378;DHT22;7272;53.668;9.578;2022-11-18T18:41:48;1.50;99.90
14378;DHT22;7272;53.668;9.578;2022-11-18T18:44:51;1.50;99.90
14378;DHT22;7272;53.668;9.578;2022-11-18T18:48:10;1.50;99.90
14378;DHT22;7272;53.668;9.578;2022-11-18T18:51:13;1.40;99.90
14378;DHT22;7272;53.668;9.578;2022-11-18T18:54:17;1.40;99.90
14378;DHT22;7272;53.668;9.578;2022-11-18T18:57:20;1.30;99.90
14378;DHT22;7272;53.668;9.578;2022-11-18T19:00:23;1.30;99.90
14378;DHT22;7272;53.668;9.578;2022-11-18T19:03:26;1.40;99.90
14378;DHT22;7272;53.668;9.578;2022-11-18T19:06:30;1.30;99.90
14378;DHT22;7272;53.668;9.578;2022-11-18T19:09:34;1.30;99.90
14378;DHT22;7272;53.668;9.578;2022-11-18T19:12:36;1.30;99.90
14378;DHT22;7272;53.668;9.578;2022-11-18T19:15:47;1.30;99.90
14378;DHT22;7272;53.668;9.578;2022-11-18T19:18:49;1.30;99.90
14378;DHT22;7272;53.668;9.578;2022-11-18T19:21:51;1.30;99.90
14378;DHT22;7272;53.668;9.578;2022-11-18T19:24:53;1.40;99.90
14378;DHT22;7272;53.668;9.578;2022-11-18T19:27:56;1.40;99.90
14378;DHT22;7272;53.668;9.578;2022-11-18T19:31:00;1.40;99.90
14378;DHT22;7272;53.668;9.578;2022-11-18T19:34:03;1.50;99.90
14378;DHT22;7272;53.668;9.578;2022-11-18T19:37:05;1.50;99.90
14378;DHT22;7272;53.668;9.578;2022-11-18T19:40:09;1.50;99.90
14378;DHT22;7272;53.668;9.578;2022-11-18T19:43:11;1.50;99.90
14378;DHT22;7272;53.668;9.578;2022-11-18T19:46:14;1.40;99.90
14378;DHT22;7272;53.668;9.578;2022-11-18T19:49:17;1.30;99.90
14378;DHT22;7272;53.668;9.578;2022-11-18T19:52:19;1.30;99.90
14378;DHT22;7272;53.668;9.578;2022-11-18T19:55:21;1.20;99.90
14378;DHT22;7272;53.668;9.578;2022-11-18T19:58:24;1.20;99.90
14378;DHT22;7272;53.668;9.578;2022-11-18T20:01:28;1.10;99.90
14378;DHT22;7272;53.668;9.578;2022-11-18T20:04:30;0.90;99.90
14378;DHT22;7272;53.668;9.578;2022-11-18T20:07:32;0.90;99.90
14378;DHT22;7272;53.668;9.578;2022-11-18T20:10:35;1.00;99.90
14378;DHT22;7272;53.668;9.578;2022-11-18T20:13:39;1.10;99.90
14378;DHT22;7272;53.668;9.578;2022-11-18T20:16:43;1.20;99.90
14378;DHT22;7272;53.668;9.578;2022-11-18T20:19:45;1.20;99.90